Alpine, Wyoming
Current Conditions -  °F | °C
As of 1:35 AM on Thursday 18 Dec 2014 (Local Time) from KAFO Reporting Station
Overcast Overcast  
Wind Chill: 23°   Ceiling: 5000
Heat Index: 23°   Visibility: 10mi
Dew Point: 19°   Wind: 0mph
Humidity: 86%   Direction: NA
Pressure: 30.03"   Gusts: NA
Location:  43.18°N, 111.03°W
Report Text: KAFO 180835Z AUTO 00000KT 10SM OVC050 M05/M07 A3003 RMK AO2
Loading
Personal Weather Stations






























Interactive Weather Map New forecast layout! Learn more

10-Day Weather Forecast

Advertisements
Track Severe Weather on mobile